Horizon — V2BF8 — position and weather

sailwx.info

Track history (hours):
 
Tides and Currents Weather Stations Pressure Air Temp Water Temp Dewpoint Dewpoint Depression Visibility Wind Speed Wind Dir Waves Ship Positions

Horizon

Last reported at 2017-Nov-19 19:12 UTC. Time now 2017-Dec-18 14:52 UTC.
Position S 34°26' E 018°20'.
Warning: this ship's position is 28 days out of date.

Length 155 m; draft 7.4 m.

Type: Cargo ship. MMSI: 304811000.

Date/timePositionNaut miles runAvg speedWind from/ knotsBaromVisibWave heightAir tempDewpointWater temp
2017-Nov-19 19:12S 34°26' E 018°20'612.1
2017-Nov-19 18:41S 34°22' E 018°14'412.8
2017-Nov-19 18:21S 34°18' E 018°14'1813.4
2017-Nov-19 16:59S 33°60' E 018°13'613.1
2017-Nov-19 16:30S 33°54' E 018°17'611.8
2017-Nov-19 16:00S 33°51' E 018°23'4 8.7
2017-Nov-19 15:29S 33°55' E 018°27'0 0.5
2017-Nov-19 15:00S 33°55' E 018°27'0 0.0
2017-Nov-19 14:30S 33°55' E 018°27'0 0.0
2017-Nov-19 14:00S 33°55' E 018°27'0 0.0
2017-Nov-19 13:30S 33°55' E 018°27'0 0.0
2017-Nov-19 13:00S 33°55' E 018°27'0 0.0
2017-Nov-19 12:30S 33°55' E 018°27'0 0.0
2017-Nov-19 12:00S 33°55' E 018°27'0 0.0
2017-Nov-19 11:30S 33°55' E 018°27'0 0.0
2017-Nov-19 11:00S 33°55' E 018°27'0 0.0
2017-Nov-19 10:30S 33°55' E 018°27'0 0.0
2017-Nov-19 09:57S 33°55' E 018°27'0 0.0
2017-Nov-19 09:30S 33°55' E 018°27'0 0.0
2017-Nov-19 09:00S 33°55' E 018°27'0 0.0
2017-Nov-19 08:30S 33°55' E 018°27'0 0.0
2017-Nov-19 08:00S 33°55' E 018°27'0 0.0
2017-Nov-19 07:30S 33°55' E 018°27'0 0.0
2017-Nov-19 07:00S 33°55' E 018°27'0 0.0
2017-Nov-19 06:30S 33°55' E 018°27'0 0.0
2017-Nov-19 06:00S 33°55' E 018°27'0 0.0
2017-Nov-19 05:30S 33°55' E 018°27'0 0.0
2017-Nov-19 05:00S 33°55' E 018°27'0 0.0
2017-Nov-19 04:30S 33°55' E 018°27'0 0.0
2017-Nov-19 04:00S 33°55' E 018°27'0 0.0
2017-Nov-19 03:27S 33°55' E 018°27'0 0.0
2017-Nov-19 03:00S 33°55' E 018°27'0 0.0
2017-Nov-19 02:30S 33°55' E 018°27'0 0.0
2017-Nov-19 02:00S 33°55' E 018°27'0 0.0
2017-Nov-19 01:27S 33°55' E 018°27'0 0.0
2017-Nov-19 00:54S 33°55' E 018°27'0 0.0
2017-Nov-19 00:30S 33°55' E 018°27'0 0.0
2017-Nov-19 00:00S 33°55' E 018°27'0 0.0
2017-Nov-18 23:30S 33°55' E 018°27'0 0.0
2017-Nov-18 23:00S 33°55' E 018°27'0 0.1
2017-Nov-18 22:30S 33°55' E 018°27'2 4.9
2017-Nov-18 22:00S 33°53' E 018°25'2 3.1
2017-Nov-18 21:30S 33°53' E 018°23'2 3.2
2017-Nov-18 21:00S 33°51' E 018°24'2 3.8
2017-Nov-18 20:29S 33°50' E 018°26'0 0.1
2017-Nov-18 19:59S 33°50' E 018°26'0 0.0
2017-Nov-18 19:29S 33°50' E 018°26'0 0.0
2017-Nov-18 18:59S 33°50' E 018°26'0 0.0
2017-Nov-18 18:26S 33°50' E 018°26'0 0.0
2017-Nov-18 17:59S 33°50' E 018°26'0 0.0
2017-Nov-18 17:29S 33°50' E 018°26'0 0.0
2017-Nov-18 16:59S 33°50' E 018°27'0 0.0
2017-Nov-18 16:29S 33°50' E 018°26'0 0.0
2017-Nov-18 15:53S 33°50' E 018°26'0 0.0
2017-Nov-18 15:29S 33°50' E 018°26'0 0.0
2017-Nov-18 14:59S 33°50' E 018°27'0 0.0
2017-Nov-18 14:26S 33°50' E 018°26'0 0.0
2017-Nov-18 13:59S 33°50' E 018°27'0 0.0
2017-Nov-18 13:29S 33°50' E 018°27'0 0.0
2017-Nov-18 12:59S 33°50' E 018°26'0 0.1
2017-Nov-18 12:29S 33°50' E 018°26'0 0.0
2017-Nov-18 11:59S 33°50' E 018°26'0 0.1
2017-Nov-18 11:29S 33°50' E 018°26'0 0.0
2017-Nov-18 10:59S 33°50' E 018°26'0 0.0
2017-Nov-18 10:26S 33°50' E 018°26'0 0.1
2017-Nov-18 09:59S 33°50' E 018°26'0 0.1
2017-Nov-18 09:23S 33°50' E 018°26'0 0.0
2017-Nov-18 08:56S 33°50' E 018°26'0 0.0
2017-Nov-18 08:29S 33°50' E 018°26'0 0.1
2017-Nov-18 07:59S 33°50' E 018°26'0 0.0
2017-Nov-18 07:29S 33°50' E 018°26'0 0.0
2017-Nov-18 06:59S 33°50' E 018°26'0 0.0
2017-Nov-18 06:29S 33°50' E 018°26'0 0.0
2017-Nov-18 05:59S 33°50' E 018°26'0 0.1
2017-Nov-18 05:29S 33°50' E 018°26'0 0.0
2017-Nov-18 04:59S 33°50' E 018°26'0 0.0
2017-Nov-18 04:29S 33°50' E 018°26'0 0.1
2017-Nov-18 03:56S 33°50' E 018°26'0 0.1
2017-Nov-18 03:29S 33°50' E 018°26'0 0.1
2017-Nov-18 02:59S 33°50' E 018°26'0 0.2
2017-Nov-18 02:29S 33°50' E 018°26'0 0.0
2017-Nov-18 01:59S 33°50' E 018°26'0 0.5
2017-Nov-18 01:30S 33°50' E 018°26'4 8.4
2017-Nov-18 01:00S 33°53' E 018°22'713.7
2017-Nov-18 00:28S 33°58' E 018°17'  
Track history (hours):
 
Tides and Currents Weather Stations Pressure Air Temp Water Temp Dewpoint Dewpoint Depression Visibility Wind Speed Wind Dir Waves Ship Positions

Horizon

Last reported at 2017-Nov-19 19:12 UTC. Time now 2017-Dec-18 14:52 UTC.
Position S 34°26' E 018°20'.
Warning: this ship's position is 28 days out of date.

Length 155 m; draft 7.4 m.

Type: Cargo ship. MMSI: 304811000.

Date/timePositionNaut miles runAvg speedWind from/ knotsBaromVisibWave heightAir tempDewpointWater temp
2017-Nov-19 19:12S 34°26' E 018°20'612.1
2017-Nov-19 18:41S 34°22' E 018°14'412.8
2017-Nov-19 18:21S 34°18' E 018°14'1813.4
2017-Nov-19 16:59S 33°60' E 018°13'613.1
2017-Nov-19 16:30S 33°54' E 018°17'611.8
2017-Nov-19 16:00S 33°51' E 018°23'4 8.7
2017-Nov-19 15:29S 33°55' E 018°27'0 0.5
2017-Nov-19 15:00S 33°55' E 018°27'0 0.0
2017-Nov-19 14:30S 33°55' E 018°27'0 0.0
2017-Nov-19 14:00S 33°55' E 018°27'0 0.0
2017-Nov-19 13:30S 33°55' E 018°27'0 0.0
2017-Nov-19 13:00S 33°55' E 018°27'0 0.0
2017-Nov-19 12:30S 33°55' E 018°27'0 0.0
2017-Nov-19 12:00S 33°55' E 018°27'0 0.0
2017-Nov-19 11:30S 33°55' E 018°27'0 0.0
2017-Nov-19 11:00S 33°55' E 018°27'0 0.0
2017-Nov-19 10:30S 33°55' E 018°27'0 0.0
2017-Nov-19 09:57S 33°55' E 018°27'0 0.0
2017-Nov-19 09:30S 33°55' E 018°27'0 0.0
2017-Nov-19 09:00S 33°55' E 018°27'0 0.0
2017-Nov-19 08:30S 33°55' E 018°27'0 0.0
2017-Nov-19 08:00S 33°55' E 018°27'0 0.0
2017-Nov-19 07:30S 33°55' E 018°27'0 0.0
2017-Nov-19 07:00S 33°55' E 018°27'0 0.0
2017-Nov-19 06:30S 33°55' E 018°27'0 0.0
2017-Nov-19 06:00S 33°55' E 018°27'0 0.0
2017-Nov-19 05:30S 33°55' E 018°27'0 0.0
2017-Nov-19 05:00S 33°55' E 018°27'0 0.0
2017-Nov-19 04:30S 33°55' E 018°27'0 0.0
2017-Nov-19 04:00S 33°55' E 018°27'0 0.0
2017-Nov-19 03:27S 33°55' E 018°27'0 0.0
2017-Nov-19 03:00S 33°55' E 018°27'0 0.0
2017-Nov-19 02:30S 33°55' E 018°27'0 0.0
2017-Nov-19 02:00S 33°55' E 018°27'0 0.0
2017-Nov-19 01:27S 33°55' E 018°27'0 0.0
2017-Nov-19 00:54S 33°55' E 018°27'0 0.0
2017-Nov-19 00:30S 33°55' E 018°27'0 0.0
2017-Nov-19 00:00S 33°55' E 018°27'0 0.0
2017-Nov-18 23:30S 33°55' E 018°27'0 0.0
2017-Nov-18 23:00S 33°55' E 018°27'0 0.1
2017-Nov-18 22:30S 33°55' E 018°27'2 4.9
2017-Nov-18 22:00S 33°53' E 018°25'2 3.1
2017-Nov-18 21:30S 33°53' E 018°23'2 3.2
2017-Nov-18 21:00S 33°51' E 018°24'2 3.8
2017-Nov-18 20:29S 33°50' E 018°26'0 0.1
2017-Nov-18 19:59S 33°50' E 018°26'0 0.0
2017-Nov-18 19:29S 33°50' E 018°26'0 0.0
2017-Nov-18 18:59S 33°50' E 018°26'0 0.0
2017-Nov-18 18:26S 33°50' E 018°26'0 0.0
2017-Nov-18 17:59S 33°50' E 018°26'0 0.0
2017-Nov-18 17:29S 33°50' E 018°26'0 0.0
2017-Nov-18 16:59S 33°50' E 018°27'0 0.0
2017-Nov-18 16:29S 33°50' E 018°26'0 0.0
2017-Nov-18 15:53S 33°50' E 018°26'0 0.0
2017-Nov-18 15:29S 33°50' E 018°26'0 0.0
2017-Nov-18 14:59S 33°50' E 018°27'0 0.0
2017-Nov-18 14:26S 33°50' E 018°26'0 0.0
2017-Nov-18 13:59S 33°50' E 018°27'0 0.0
2017-Nov-18 13:29S 33°50' E 018°27'0 0.0
2017-Nov-18 12:59S 33°50' E 018°26'0 0.1
2017-Nov-18 12:29S 33°50' E 018°26'0 0.0
2017-Nov-18 11:59S 33°50' E 018°26'0 0.1
2017-Nov-18 11:29S 33°50' E 018°26'0 0.0
2017-Nov-18 10:59S 33°50' E 018°26'0 0.0
2017-Nov-18 10:26S 33°50' E 018°26'0 0.1
2017-Nov-18 09:59S 33°50' E 018°26'0 0.1
2017-Nov-18 09:23S 33°50' E 018°26'0 0.0
2017-Nov-18 08:56S 33°50' E 018°26'0 0.0
2017-Nov-18 08:29S 33°50' E 018°26'0 0.1
2017-Nov-18 07:59S 33°50' E 018°26'0 0.0
2017-Nov-18 07:29S 33°50' E 018°26'0 0.0
2017-Nov-18 06:59S 33°50' E 018°26'0 0.0
2017-Nov-18 06:29S 33°50' E 018°26'0 0.0
2017-Nov-18 05:59S 33°50' E 018°26'0 0.1
2017-Nov-18 05:29S 33°50' E 018°26'0 0.0
2017-Nov-18 04:59S 33°50' E 018°26'0 0.0
2017-Nov-18 04:29S 33°50' E 018°26'0 0.1
2017-Nov-18 03:56S 33°50' E 018°26'0 0.1
2017-Nov-18 03:29S 33°50' E 018°26'0 0.1
2017-Nov-18 02:59S 33°50' E 018°26'0 0.2
2017-Nov-18 02:29S 33°50' E 018°26'0 0.0
2017-Nov-18 01:59S 33°50' E 018°26'0 0.5
2017-Nov-18 01:30S 33°50' E 018°26'4 8.4
2017-Nov-18 01:00S 33°53' E 018°22'713.7
2017-Nov-18 00:28S 33°58' E 018°17'  

Dump ship's entire track history